Time;durP1;ratioP1;P1;durP2;ratioP2;P2;SDS_P1;SDS_P2;PMS_P1;PMS_P2;Temp;Humidity;BMP_temperature;BMP_pressure;BME280_temperature;BME280_humidity;BME280_pressure;Samples;Min_cycle;Max_cycle;Signal;HPM_P1;HPM_P2
2023/04/17 11:31:32;;;;;;;7.57;6.40;;;13.50;1.00;;;;;;6234733;22;20306;-81
2023/04/17 11:33:59;;;;;;;10.98;6.28;;;13.70;1.00;;;;;;6207126;23;20140;-81
2023/04/17 11:36:25;;;;;;;8.07;6.03;;;13.80;1.00;;;;;;6207306;23;20226;-80
2023/04/17 11:38:51;;;;;;;7.35;6.65;;;13.70;1.00;;;;;;6205755;23;20614;-80
2023/04/17 11:41:17;;;;;;;7.78;6.97;;;13.50;1.00;;;;;;6205726;23;20174;-80
2023/04/17 11:43:43;;;;;;;11.57;6.22;;;13.50;1.00;;;;;;6205491;23;20165;-79
2023/04/17 11:46:09;;;;;;;9.13;7.07;;;13.50;1.00;;;;;;6205990;23;20461;-79
2023/04/17 11:48:34;;;;;;;8.38;6.68;;;13.50;1.00;;;;;;6205888;23;20205;-79
2023/04/17 11:51:03;;;;;;;9.07;6.70;;;13.50;1.00;;;;;;6205945;23;20170;-81
2023/04/17 11:53:29;;;;;;;7.90;6.25;;;13.60;1.00;;;;;;6208177;23;20540;-80
2023/04/17 11:56:14;;;;;;;8.82;6.50;;;13.50;1.00;;;;;;6204962;23;20496;-81
2023/04/17 11:58:54;;;;;;;9.43;6.55;;;13.50;1.00;;;;;;6207310;23;20176;-81
2023/04/17 12:01:23;;;;;;;8.10;6.60;;;13.70;1.00;;;;;;6206453;23;20709;-80
2023/04/17 12:03:49;;;;;;;8.32;6.82;;;13.70;1.00;;;;;;6207352;23;20158;-80
2023/04/17 12:06:15;;;;;;;6.93;6.15;;;13.90;1.00;;;;;;6204367;23;20182;-82
2023/04/17 12:08:50;;;;;;;8.55;7.28;;;14.10;1.00;;;;;;6205147;23;20603;-81
2023/04/17 12:11:31;;;;;;;11.07;7.50;;;14.10;1.00;;;;;;6205088;23;20260;-81
2023/04/17 12:13:57;;;;;;;7.82;6.57;;;14.00;1.00;;;;;;6206388;23;20135;-81
2023/04/17 12:16:24;;;;;;;11.23;7.30;;;14.10;1.00;;;;;;6206372;23;20321;-81
2023/04/17 12:18:50;;;;;;;8.63;7.68;;;14.10;1.00;;;;;;6206048;23;20163;-81
2023/04/17 12:21:16;;;;;;;9.02;7.70;;;14.70;1.00;;;;;;6208015;23;20664;-82
2023/04/17 12:23:42;;;;;;;8.80;7.40;;;14.30;1.00;;;;;;6211610;23;20212;-80
2023/04/17 12:26:08;;;;;;;12.00;10.27;;;14.40;1.00;;;;;;6208415;23;20186;-80
2023/04/17 12:28:34;;;;;;;14.27;12.40;;;14.50;1.00;;;;;;6210406;23;20163;-80
2023/04/17 12:31:00;;;;;;;8.80;7.82;;;14.30;1.00;;;;;;6209586;23;20178;-79
2023/04/17 12:33:25;;;;;;;7.50;6.78;;;14.10;1.00;;;;;;6210748;23;20337;-79
2023/04/17 12:35:51;;;;;;;9.88;7.65;;;14.00;1.00;;;;;;6212187;23;20162;-79
2023/04/17 12:38:17;;;;;;;8.70;6.82;;;13.90;1.00;;;;;;6213016;23;20180;-79
2023/04/17 12:40:44;;;;;;;7.82;6.70;;;13.90;1.00;;;;;;6210649;23;20182;-79
2023/04/17 12:43:10;;;;;;;7.78;6.28;;;14.10;1.00;;;;;;6211900;23;20169;-80
2023/04/17 12:45:36;;;;;;;7.68;6.47;;;13.90;1.00;;;;;;6213432;23;20445;-80
2023/04/17 12:48:06;;;;;;;9.40;6.30;;;13.90;1.00;;;;;;6213475;23;20158;-80
2023/04/17 12:50:32;;;;;;;8.27;5.90;;;14.00;1.00;;;;;;6215108;23;20170;-79
2023/04/17 12:52:58;;;;;;;8.52;6.15;;;13.90;1.00;;;;;;6214216;23;20204;-79
2023/04/17 12:55:26;;;;;;;8.38;6.15;;;13.90;1.00;;;;;;6211907;23;20158;-79
2023/04/17 12:57:52;;;;;;;8.63;6.38;;;14.00;1.00;;;;;;6212079;23;20154;-80
2023/04/17 13:00:19;;;;;;;10.23;6.70;;;14.00;1.00;;;;;;6213737;23;20638;-79
2023/04/17 13:02:44;;;;;;;7.50;6.68;;;14.10;1.00;;;;;;6214994;23;20147;-80
2023/04/17 13:05:10;;;;;;;7.28;6.57;;;14.10;1.00;;;;;;6212150;23;20151;-80
2023/04/17 13:07:35;;;;;;;7.53;6.72;;;14.00;1.00;;;;;;6208433;23;20209;-80
2023/04/17 13:10:01;;;;;;;7.38;6.40;;;14.10;1.00;;;;;;6209793;23;20155;-81
2023/04/17 13:12:27;;;;;;;7.88;6.03;;;14.10;1.00;;;;;;6206531;23;20483;-78
2023/04/17 13:14:52;;;;;;;7.07;6.35;;;14.10;1.00;;;;;;6206353;23;20232;-80
2023/04/17 13:17:19;;;;;;;7.68;6.13;;;14.30;1.00;;;;;;6209100;23;20672;-80
2023/04/17 13:19:45;;;;;;;7.68;6.88;;;14.20;1.00;;;;;;6205602;23;20250;-79
2023/04/17 13:22:11;;;;;;;7.65;5.80;;;14.00;1.00;;;;;;6204001;23;20654;-79
2023/04/17 13:24:36;;;;;;;7.10;6.30;;;14.20;1.00;;;;;;6206624;23;20497;-80
2023/04/17 13:27:03;;;;;;;7.75;6.10;;;14.20;1.00;;;;;;6205014;23;20489;-77
2023/04/17 13:29:29;;;;;;;10.77;6.07;;;14.20;1.00;;;;;;6203602;23;20186;-80
2023/04/17 13:31:54;;;;;;;6.35;5.72;;;14.20;1.00;;;;;;6205015;23;20217;-80
2023/04/17 13:34:20;;;;;;;17.75;7.70;;;14.30;1.00;;;;;;6205833;23;20498;-81
2023/04/17 13:36:46;;;;;;;7.35;5.93;;;14.40;1.00;;;;;;6207365;23;20236;-80
2023/04/17 13:39:12;;;;;;;6.93;6.00;;;14.40;1.00;;;;;;6206454;23;20417;-79
2023/04/17 13:41:37;;;;;;;7.95;5.90;;;14.70;1.00;;;;;;6205242;23;20358;-80
2023/04/17 13:44:03;;;;;;;8.02;5.95;;;14.30;1.00;;;;;;6205310;23;20162;-79
2023/04/17 13:46:30;;;;;;;9.52;6.80;;;14.10;1.00;;;;;;6207610;23;20174;-79
2023/04/17 13:48:56;;;;;;;9.20;6.43;;;14.00;1.00;;;;;;6207444;23;20169;-80
2023/04/17 13:51:22;;;;;;;8.52;6.22;;;14.50;1.00;;;;;;6207016;23;20170;-79
2023/04/17 13:53:47;;;;;;;6.35;5.75;;;14.00;1.00;;;;;;6207340;23;20155;-79
2023/04/17 13:56:13;;;;;;;6.85;6.03;;;14.00;1.00;;;;;;6204457;23;20449;-79
2023/04/17 13:58:40;;;;;;;6.75;5.50;;;14.20;1.00;;;;;;6203968;23;20521;-80
2023/04/17 14:01:06;;;;;;;7.32;5.95;;;14.30;1.00;;;;;;6204397;23;20178;-79
2023/04/17 14:03:31;;;;;;;8.00;6.10;;;14.30;1.00;;;;;;6207316;23;20163;-83
2023/04/17 14:05:57;;;;;;;7.65;6.13;;;14.40;1.00;;;;;;6208480;23;20257;-84
2023/04/17 14:08:23;;;;;;;9.05;6.43;;;14.40;1.00;;;;;;6207584;23;20163;-83
2023/04/17 14:10:48;;;;;;;7.68;6.57;;;14.40;1.00;;;;;;6209914;23;20252;-83
2023/04/17 14:13:15;;;;;;;9.02;6.25;;;14.40;1.00;;;;;;6209058;23;20204;-84
2023/04/17 14:15:40;;;;;;;6.30;5.70;;;15.20;1.00;;;;;;6207598;23;20240;-84
2023/04/17 14:18:08;;;;;;;7.90;5.82;;;15.00;1.00;;;;;;6209254;23;20762;-85
2023/04/17 14:20:34;;;;;;;6.72;5.75;;;14.90;1.00;;;;;;6206681;23;20249;-83
2023/04/17 14:23:00;;;;;;;7.82;6.20;;;14.70;1.00;;;;;;6204158;23;20163;-83
2023/04/17 14:25:25;;;;;;;7.05;6.35;;;14.80;1.00;;;;;;6205306;23;20161;-84
2023/04/17 14:27:51;;;;;;;8.25;6.03;;;14.90;1.00;;;;;;6208727;23;20159;-83
2023/04/17 14:30:17;;;;;;;7.93;5.95;;;14.60;1.00;;;;;;6211124;23;21087;-83
2023/04/17 14:32:42;;;;;;;6.75;6.05;;;14.50;1.00;;;;;;6213061;23;20169;-84
2023/04/17 14:35:08;;;;;;;6.60;5.90;;;14.40;1.00;;;;;;6210149;23;20158;-84
2023/04/17 14:37:34;;;;;;;6.63;5.88;;;14.60;1.00;;;;;;6210989;23;20234;-84
2023/04/17 14:40:00;;;;;;;6.30;5.68;;;14.40;1.00;;;;;;6211638;23;20162;-83
2023/04/17 14:42:26;;;;;;;7.05;5.47;;;14.70;1.00;;;;;;6215831;23;20186;-84
2023/04/17 14:44:51;;;;;;;7.28;5.45;;;14.50;1.00;;;;;;6210023;23;20206;-83
2023/04/17 14:47:18;;;;;;;8.38;5.65;;;14.90;1.00;;;;;;6206890;23;20177;-84
2023/04/17 14:49:44;;;;;;;9.77;5.45;;;14.40;1.00;;;;;;6209822;23;20668;-83
2023/04/17 14:52:09;;;;;;;9.35;5.90;;;14.20;1.00;;;;;;6211795;23;20170;-83
2023/04/17 14:54:35;;;;;;;8.13;5.70;;;14.30;1.00;;;;;;6210654;23;20158;-83
2023/04/17 14:57:00;;;;;;;11.05;5.85;;;14.50;1.00;;;;;;6210141;23;20168;-84
2023/04/17 14:59:27;;;;;;;8.07;5.35;;;14.60;1.00;;;;;;6208586;23;20194;-85
2023/04/17 15:01:52;;;;;;;6.00;4.70;;;14.50;1.00;;;;;;6213116;23;20208;-83
2023/04/17 15:04:18;;;;;;;6.35;5.35;;;14.30;1.00;;;;;;6211091;23;20162;-84
2023/04/17 15:06:44;;;;;;;5.45;4.95;;;14.10;1.00;;;;;;6213010;23;20182;-83
2023/04/17 15:09:09;;;;;;;7.65;4.82;;;14.00;1.00;;;;;;6214481;23;20170;-84
2023/04/17 15:11:35;;;;;;;7.05;5.00;;;14.00;1.00;;;;;;6213965;23;20182;-84
2023/04/17 15:14:04;;;;;;;5.70;4.82;;;14.40;1.00;;;;;;6218531;23;20138;-84
2023/04/17 15:16:30;;;;;;;5.40;4.90;;;14.30;1.00;;;;;;6214361;23;20173;-83
2023/04/17 15:18:56;;;;;;;5.13;4.65;;;14.30;1.00;;;;;;6211783;23;20162;-83
2023/04/17 15:21:21;;;;;;;6.40;5.22;;;14.30;1.00;;;;;;6214217;23;20182;-84
2023/04/17 15:23:47;;;;;;;6.20;5.28;;;14.20;1.00;;;;;;6215342;23;21027;-82
2023/04/17 15:26:12;;;;;;;8.73;5.22;;;15.00;1.00;;;;;;6217750;23;20177;-85
2023/04/17 15:28:38;;;;;;;5.80;5.18;;;14.20;1.00;;;;;;6216731;23;20222;-83
2023/04/17 15:31:05;;;;;;;7.57;6.00;;;14.30;1.00;;;;;;6215820;23;20174;-84
2023/04/17 15:33:31;;;;;;;5.63;5.10;;;14.30;1.00;;;;;;6220893;23;20161;-85
2023/04/17 15:35:58;;;;;;;6.85;5.30;;;14.30;1.00;;;;;;6218286;23;20188;-83
2023/04/17 15:38:27;;;;;;;5.47;4.97;;;14.40;1.00;;;;;;6217894;23;20560;-83
2023/04/17 15:40:53;;;;;;;6.53;5.40;;;15.10;1.00;;;;;;6215005;23;20182;-83
2023/04/17 15:43:19;;;;;;;6.72;5.38;;;14.40;1.00;;;;;;6214651;23;20192;-84
2023/04/17 15:45:48;;;;;;;5.90;5.30;;;14.30;1.00;;;;;;6215415;23;20265;-83
2023/04/17 15:48:14;;;;;;;7.55;6.00;;;15.30;1.00;;;;;;6214951;23;20158;-83
2023/04/17 15:50:40;;;;;;;6.25;5.65;;;14.60;1.00;;;;;;6215574;23;20181;-83
2023/04/17 15:53:06;;;;;;;6.32;5.70;;;14.60;1.00;;;;;;6221014;23;20157;-84
2023/04/17 15:55:32;;;;;;;5.80;5.20;;;14.50;1.00;;;;;;6221882;23;20150;-82
2023/04/17 15:57:58;;;;;;;6.28;5.53;;;14.30;1.00;;;;;;6221140;23;20316;-83
2023/04/17 16:00:24;;;;;;;6.50;5.85;;;14.80;1.00;;;;;;6222455;23;20171;-83
2023/04/17 16:02:50;;;;;;;7.18;5.50;;;14.10;1.00;;;;;;6224080;23;20161;-82
2023/04/17 16:05:17;;;;;;;8.55;6.20;;;14.80;1.00;;;;;;6217101;23;20734;-83
2023/04/17 16:07:43;;;;;;;7.15;6.40;;;14.30;1.00;;;;;;6217559;23;20186;-83
2023/04/17 16:10:13;;;;;;;9.65;6.55;;;13.60;1.00;;;;;;6219120;23;20173;-82
2023/04/17 16:12:45;;;;;;;7.38;6.68;;;13.40;1.00;;;;;;6216265;23;20161;-82
2023/04/17 16:15:15;;;;;;;7.53;6.35;;;13.90;1.00;;;;;;6217136;23;20146;-83
2023/04/17 16:17:41;;;;;;;7.43;6.10;;;13.30;1.00;;;;;;6217693;23;20134;-82
2023/04/17 16:20:07;;;;;;;9.07;6.78;;;14.10;1.00;;;;;;6216119;23;20193;-83
2023/04/17 16:22:32;;;;;;;9.65;6.97;;;13.20;1.00;;;;;;6219369;23;20162;-83
2023/04/17 16:24:58;;;;;;;8.30;6.72;;;13.20;1.00;;;;;;6216536;23;20249;-83
2023/04/17 16:27:27;;;;;;;9.73;7.30;;;13.10;1.00;;;;;;6216548;23;20212;-82
2023/04/17 16:29:53;;;;;;;8.90;7.13;;;13.10;1.00;;;;;;6216983;23;20225;-82
2023/04/17 16:32:19;;;;;;;8.40;6.63;;;13.00;1.00;;;;;;6220723;23;20177;-83
2023/04/17 16:34:45;;;;;;;9.50;6.72;;;13.50;1.00;;;;;;6217333;23;20202;-82
2023/04/17 16:37:11;;;;;;;7.47;6.22;;;12.90;1.00;;;;;;6218864;23;20173;-82
2023/04/17 16:39:36;;;;;;;7.15;6.18;;;12.80;1.00;;;;;;6215650;23;20481;-83
2023/04/17 16:42:02;;;;;;;7.70;6.80;;;12.80;1.00;;;;;;6217377;23;20178;-83
2023/04/17 16:44:29;;;;;;;7.90;7.07;;;12.70;1.00;;;;;;6219741;23;20229;-82
2023/04/17 16:46:55;;;;;;;8.13;6.65;;;13.40;1.00;;;;;;6213318;23;20226;-81
2023/04/17 16:49:20;;;;;;;7.63;6.88;;;12.70;1.00;;;;;;6215949;23;20427;-83
2023/04/17 16:51:46;;;;;;;9.18;7.90;;;12.70;1.00;;;;;;6221600;23;20197;-82
2023/04/17 16:54:12;;;;;;;8.93;8.00;;;12.60;1.00;;;;;;6220532;23;20558;-83
2023/04/17 16:56:37;;;;;;;8.68;7.65;;;12.50;1.00;;;;;;6223278;23;20163;-82
2023/04/17 16:59:03;;;;;;;8.68;7.53;;;12.40;1.00;;;;;;6217761;23;20217;-83
2023/04/17 17:01:30;;;;;;;10.20;7.78;;;12.30;1.00;;;;;;6221738;23;20233;-82
2023/04/17 17:03:57;;;;;;;9.32;8.10;;;12.20;1.00;;;;;;6222924;23;20154;-82
2023/04/17 17:06:23;;;;;;;8.88;7.97;;;12.50;1.00;;;;;;6220823;23;20186;-82
2023/04/17 17:08:48;;;;;;;9.43;8.48;;;11.90;1.00;;;;;;6221406;23;20164;-82
2023/04/17 17:11:15;;;;;;;12.20;9.52;;;11.70;1.00;;;;;;6218250;23;20178;-82
2023/04/17 17:13:44;;;;;;;9.10;8.20;;;11.60;1.00;;;;;;6218367;23;20524;-81
2023/04/17 17:16:10;;;;;;;10.73;8.15;;;11.40;1.00;;;;;;6213046;23;20197;-82
2023/04/17 17:18:35;;;;;;;9.95;8.90;;;11.30;1.00;;;;;;6209918;23;20158;-82
2023/04/17 17:21:01;;;;;;;11.00;8.80;;;11.20;1.00;;;;;;6210180;23;20178;-82
2023/04/17 17:23:26;;;;;;;8.90;7.88;;;11.10;1.00;;;;;;6211417;23;20162;-82
2023/04/17 17:25:52;;;;;;;9.27;7.93;;;11.00;1.00;;;;;;6208666;23;20225;-81
2023/04/17 17:28:17;;;;;;;8.30;7.60;;;10.90;1.00;;;;;;6206776;23;20166;-81
2023/04/17 17:30:43;;;;;;;8.37;7.40;;;10.80;1.00;;;;;;6205155;23;20241;-82
2023/04/17 17:33:08;;;;;;;8.40;7.37;;;10.80;1.00;;;;;;6209340;23;20201;-83
2023/04/17 17:35:36;;;;;;;8.40;7.50;;;10.70;1.00;;;;;;6211394;23;20225;-83
2023/04/17 17:38:02;;;;;;;8.17;6.93;;;10.60;1.00;;;;;;6213044;23;20166;-84
2023/04/17 17:40:27;;;;;;;7.67;6.90;;;10.50;1.00;;;;;;6208956;23;20174;-83
2023/04/17 17:42:53;;;;;;;7.17;6.47;;;10.40;1.00;;;;;;6208656;23;20603;-82
2023/04/17 17:45:18;;;;;;;8.13;6.70;;;10.30;1.00;;;;;;6209297;23;20169;-83
2023/04/17 17:47:44;;;;;;;7.63;6.73;;;10.20;1.00;;;;;;6214325;23;20190;-83
2023/04/17 17:50:10;;;;;;;7.97;6.67;;;10.10;1.00;;;;;;6214887;23;20158;-83
2023/04/17 17:52:35;;;;;;;8.27;7.40;;;9.80;1.00;;;;;;6214800;23;20185;-83
2023/04/17 17:55:01;;;;;;;7.97;6.67;;;9.70;1.00;;;;;;6217083;23;20490;-84
2023/04/17 17:57:27;;;;;;;8.27;6.43;;;9.50;1.00;;;;;;6215745;23;20215;-83
2023/04/17 17:59:52;;;;;;;7.63;6.83;;;9.40;1.00;;;;;;6215453;23;20162;-83
2023/04/17 18:02:18;;;;;;;7.73;6.93;;;9.30;1.00;;;;;;6219747;23;20257;-84
2023/04/17 18:04:43;;;;;;;8.30;6.97;;;9.20;1.00;;;;;;6217313;23;20158;-83
2023/04/17 18:07:09;;;;;;;8.17;6.70;;;9.10;1.00;;;;;;6214545;23;20184;-83
2023/04/17 18:09:35;;;;;;;9.27;7.53;;;9.00;1.00;;;;;;6215257;23;20150;-83
2023/04/17 18:12:02;;;;;;;7.57;6.87;;;9.00;1.00;;;;;;6216139;23;20225;-83
2023/04/17 18:14:28;;;;;;;7.47;6.77;;;8.90;1.00;;;;;;6215134;23;20497;-83
2023/04/17 18:16:54;;;;;;;7.63;6.83;;;8.80;1.00;;;;;;6214996;23;20642;-84
2023/04/17 18:19:20;;;;;;;7.60;6.80;;;8.80;1.00;;;;;;6214402;23;20166;-83
2023/04/17 18:21:45;;;;;;;7.87;6.43;;;8.70;1.00;;;;;;6215849;23;20597;-83
2023/04/17 18:24:11;;;;;;;7.50;6.80;;;8.70;1.00;;;;;;6215632;23;20547;-83
2023/04/17 18:26:36;;;;;;;6.20;5.60;;;8.60;1.00;;;;;;6213254;23;20208;-83
2023/04/17 18:29:02;;;;;;;5.93;5.33;;;8.60;1.00;;;;;;6213155;23;20214;-83
2023/04/17 18:31:28;;;;;;;6.00;5.40;;;8.50;1.00;;;;;;6216612;23;20190;-83
2023/04/17 18:33:53;;;;;;;6.30;5.57;;;9.70;1.00;;;;;;6218542;23;20161;-82
2023/04/17 18:36:19;;;;;;;6.20;5.57;;;8.40;1.00;;;;;;6216475;23;20754;-83
2023/04/17 18:38:44;;;;;;;6.00;5.40;;;8.30;1.00;;;;;;6216251;23;20159;-83
2023/04/17 18:41:10;;;;;;;6.13;5.53;;;8.30;1.00;;;;;;6214404;23;20234;-83
2023/04/17 18:43:35;;;;;;;6.27;5.37;;;8.30;1.00;;;;;;6216504;23;20169;-83
2023/04/17 18:46:03;;;;;;;6.27;5.67;;;8.30;1.00;;;;;;6215941;23;20657;-83
2023/04/17 18:48:29;;;;;;;5.77;4.83;;;8.20;1.00;;;;;;6215307;23;20642;-83
2023/04/17 18:50:54;;;;;;;4.93;4.43;;;8.20;1.00;;;;;;6213882;23;20178;-83
2023/04/17 18:53:25;;;;;;;5.50;4.97;;;8.20;1.00;;;;;;6214001;23;20575;-83
2023/04/17 18:55:54;;;;;;;5.63;5.13;;;8.80;1.00;;;;;;6213177;23;20161;-81
2023/04/17 18:58:22;;;;;;;5.23;4.73;;;8.10;1.00;;;;;;6210462;23;20513;-79
2023/04/17 19:00:48;;;;;;;4.80;4.40;;;8.10;1.00;;;;;;6207930;23;20190;-78
2023/04/17 19:03:16;;;;;;;4.90;4.30;;;8.00;1.00;;;;;;6210651;23;20562;-79
2023/04/17 19:05:42;;;;;;;5.33;4.83;;;8.70;1.00;;;;;;6209352;23;20233;-79
2023/04/17 19:08:08;;;;;;;4.70;4.30;;;7.90;1.00;;;;;;6210756;23;20220;-79
2023/04/17 19:10:34;;;;;;;4.50;4.10;;;7.90;1.00;;;;;;6208968;23;20187;-78
2023/04/17 19:12:59;;;;;;;4.20;3.90;;;7.80;1.00;;;;;;6209180;23;20476;-78
2023/04/17 19:15:25;;;;;;;4.33;3.97;;;7.80;1.00;;;;;;6208430;23;20207;-79
2023/04/17 19:17:51;;;;;;;5.03;3.60;;;7.70;1.00;;;;;;6208346;23;20162;-79
2023/04/17 19:20:16;;;;;;;3.97;3.57;;;8.60;1.00;;;;;;6209693;23;20182;-79
2023/04/17 19:22:42;;;;;;;4.70;3.80;;;7.70;1.00;;;;;;6208792;23;20296;-78
2023/04/17 19:25:08;;;;;;;4.00;3.70;;;7.60;1.00;;;;;;6207612;23;20172;-79
2023/04/17 19:27:37;;;;;;;4.27;3.77;;;7.60;1.00;;;;;;6208359;23;20184;-78
2023/04/17 19:30:03;;;;;;;4.10;3.70;;;7.50;1.00;;;;;;6208189;23;20158;-78
2023/04/17 19:32:28;;;;;;;4.00;3.67;;;7.50;1.00;;;;;;6209009;23;20178;-79
2023/04/17 19:34:54;;;;;;;3.90;3.60;;;7.50;1.00;;;;;;6208131;23;20158;-78
2023/04/17 19:37:19;;;;;;;3.97;3.67;;;7.50;1.00;;;;;;6209905;23;20154;-79
2023/04/17 19:39:45;;;;;;;3.97;3.67;;;7.40;1.00;;;;;;6209330;23;20162;-79
2023/04/17 19:42:10;;;;;;;4.43;3.67;;;7.40;1.00;;;;;;6209841;23;20654;-78
2023/04/17 19:44:36;;;;;;;3.90;3.60;;;7.40;1.00;;;;;;6210014;23;20185;-78
2023/04/17 19:47:02;;;;;;;4.00;3.70;;;7.40;1.00;;;;;;6207143;23;20185;-79
2023/04/17 19:49:27;;;;;;;3.87;3.50;;;7.40;1.00;;;;;;6209208;23;20157;-78
2023/04/17 19:51:53;;;;;;;3.57;3.27;;;7.40;1.00;;;;;;6207230;23;20742;-79
2023/04/17 19:54:18;;;;;;;4.43;3.90;;;7.30;1.00;;;;;;6209958;23;20165;-79
2023/04/17 19:56:44;;;;;;;5.03;3.83;;;7.40;1.00;;;;;;6209616;23;20181;-79
2023/04/17 19:59:11;;;;;;;3.50;3.20;;;7.40;1.00;;;;;;6209372;23;20161;-78
2023/04/17 20:01:37;;;;;;;4.13;3.73;;;7.40;1.00;;;;;;6207694;23;20198;-79
2023/04/17 20:04:03;;;;;;;3.70;3.40;;;7.40;1.00;;;;;;6207500;23;20225;-78
2023/04/17 20:06:29;;;;;;;3.70;3.40;;;7.40;1.00;;;;;;6208895;23;20245;-79
2023/04/17 20:08:57;;;;;;;4.00;3.50;;;7.40;1.00;;;;;;6207937;23;20135;-79
2023/04/17 20:11:22;;;;;;;3.70;3.40;;;7.50;1.00;;;;;;6206870;23;20201;-79
2023/04/17 20:13:48;;;;;;;5.17;3.90;;;7.60;1.00;;;;;;6207717;23;20177;-78
2023/04/17 20:16:14;;;;;;;3.97;3.67;;;7.50;1.00;;;;;;6206968;23;20240;-78
2023/04/17 20:18:40;;;;;;;3.87;3.57;;;7.50;1.00;;;;;;6206617;23;20163;-78
2023/04/17 20:21:06;;;;;;;4.30;3.90;;;7.50;1.00;;;;;;6207365;23;20217;-78
2023/04/17 20:23:32;;;;;;;4.17;3.77;;;7.50;1.00;;;;;;6208981;23;20154;-78
2023/04/17 20:25:57;;;;;;;5.23;3.93;;;7.50;1.00;;;;;;6208689;23;20212;-78
2023/04/17 20:28:23;;;;;;;3.97;3.67;;;7.50;1.00;;;;;;6207012;23;20163;-77
2023/04/17 20:30:49;;;;;;;4.07;3.77;;;7.50;1.00;;;;;;6208914;23;20626;-79
2023/04/17 20:33:14;;;;;;;5.63;3.93;;;7.50;1.00;;;;;;6209229;23;20167;-78
2023/04/17 20:35:43;;;;;;;3.60;3.30;;;7.50;1.00;;;;;;6207646;23;20686;-78
2023/04/17 20:38:08;;;;;;;4.37;3.97;;;7.40;1.00;;;;;;6208688;23;20151;-78
2023/04/17 20:40:34;;;;;;;4.03;3.73;;;7.40;1.00;;;;;;6207619;23;20174;-78
2023/04/17 20:42:59;;;;;;;4.07;3.77;;;7.50;1.00;;;;;;6210757;23;20154;-79
2023/04/17 20:45:27;;;;;;;4.47;4.07;;;7.50;1.00;;;;;;6208681;23;20182;-79
2023/04/17 20:47:52;;;;;;;4.50;4.10;;;7.40;1.00;;;;;;6208749;23;20284;-79
2023/04/17 20:50:19;;;;;;;4.77;4.37;;;7.50;1.00;;;;;;6210331;23;20208;-79
2023/04/17 20:52:46;;;;;;;4.47;4.07;;;7.50;1.00;;;;;;6209131;23;20177;-79
2023/04/17 20:55:11;;;;;;;4.63;4.23;;;7.50;1.00;;;;;;6209014;23;20181;-79
2023/04/17 20:57:37;;;;;;;4.13;3.73;;;7.50;1.00;;;;;;6210219;23;20212;-79
2023/04/17 21:00:04;;;;;;;5.23;4.73;;;7.50;1.00;;;;;;6209891;23;20626;-78
2023/04/17 21:02:29;;;;;;;4.00;3.70;;;7.50;1.00;;;;;;6208464;23;20166;-79
2023/04/17 21:04:55;;;;;;;4.30;3.90;;;7.50;1.00;;;;;;6211440;23;20182;-79
2023/04/17 21:07:21;;;;;;;5.07;4.57;;;7.50;1.00;;;;;;6209154;23;20639;-79
2023/04/17 21:09:46;;;;;;;4.67;4.27;;;7.50;1.00;;;;;;6211106;23;20161;-79
2023/04/17 21:12:12;;;;;;;4.90;4.50;;;7.40;1.00;;;;;;6208497;23;20174;-78
2023/04/17 21:14:37;;;;;;;5.57;4.80;;;7.40;1.00;;;;;;6210727;23;20204;-78
2023/04/17 21:17:03;;;;;;;5.03;4.63;;;7.40;1.00;;;;;;6210943;23;20224;-78
2023/04/17 21:19:29;;;;;;;4.80;4.40;;;7.40;1.00;;;;;;6210374;23;20168;-79
2023/04/17 21:21:57;;;;;;;5.00;4.60;;;7.40;1.00;;;;;;6210734;23;20200;-78
2023/04/17 21:24:22;;;;;;;4.83;4.33;;;7.40;1.00;;;;;;6210439;23;20178;-78
2023/04/17 21:26:48;;;;;;;5.20;4.70;;;7.40;1.00;;;;;;6210510;23;20193;-79
2023/04/17 21:29:14;;;;;;;4.87;4.47;;;7.40;1.00;;;;;;6208068;23;20610;-79
2023/04/17 21:31:40;;;;;;;5.13;4.63;;;7.40;1.00;;;;;;6208658;23;20204;-79
2023/04/17 21:34:06;;;;;;;5.27;4.70;;;7.40;1.00;;;;;;6209485;23;20603;-78
2023/04/17 21:36:31;;;;;;;5.73;5.23;;;7.50;1.00;;;;;;6208549;23;20159;-79
2023/04/17 21:38:57;;;;;;;5.67;5.10;;;7.40;1.00;;;;;;6207494;23;20162;-78
2023/04/17 21:41:22;;;;;;;5.80;5.23;;;8.10;1.00;;;;;;6207123;23;20189;-79
2023/04/17 21:43:48;;;;;;;5.87;5.27;;;7.40;1.00;;;;;;6207369;23;20163;-78
2023/04/17 21:46:14;;;;;;;7.03;5.63;;;7.40;1.00;;;;;;6207131;23;20221;-79
2023/04/17 21:48:39;;;;;;;6.50;5.90;;;7.30;1.00;;;;;;6206865;23;20158;-79
2023/04/17 21:51:05;;;;;;;6.80;6.10;;;7.40;1.00;;;;;;6208510;23;20537;-78
2023/04/17 21:53:32;;;;;;;6.83;6.13;;;7.40;1.00;;;;;;6207110;23;20158;-78
2023/04/17 21:55:58;;;;;;;6.40;5.80;;;7.40;1.00;;;;;;6207005;23;20545;-78
2023/04/17 21:58:23;;;;;;;6.83;6.13;;;7.30;1.00;;;;;;6208699;23;20154;-79
2023/04/17 22:00:49;;;;;;;7.00;6.30;;;7.30;1.00;;;;;;6208914;23;20185;-79
2023/04/17 22:03:16;;;;;;;7.40;6.37;;;7.20;8.20;;;;;;6207102;23;20185;-80
2023/04/17 22:05:42;;;;;;;7.57;6.90;;;7.10;24.10;;;;;;6206899;23;20548;-78
2023/04/17 22:08:08;;;;;;;7.00;6.40;;;7.20;40.00;;;;;;6208683;23;20215;-79
2023/04/17 22:10:34;;;;;;;7.67;6.87;;;7.20;52.30;;;;;;6208655;23;20174;-80
2023/04/17 22:13:00;;;;;;;7.43;6.70;;;7.10;65.40;;;;;;6207422;23;20628;-79
2023/04/17 22:15:25;;;;;;;7.07;6.33;;;7.00;99.90;;;;;;6209001;23;20218;-80
2023/04/17 22:17:51;;;;;;;8.37;7.13;;;7.00;99.90;;;;;;6207342;23;20252;-79
2023/04/17 22:20:17;;;;;;;8.10;7.30;;;6.90;99.90;;;;;;6206537;23;20213;-79
2023/04/17 22:22:42;;;;;;;8.17;7.37;;;6.90;99.90;;;;;;6208732;23;20161;-78
2023/04/17 22:25:08;;;;;;;7.97;7.27;;;6.80;99.90;;;;;;6206483;23;20293;-79
2023/04/17 22:27:34;;;;;;;7.77;6.97;;;6.80;99.90;;;;;;6206733;23;20185;-79
2023/04/17 22:29:59;;;;;;;7.77;7.03;;;6.80;99.90;;;;;;6206077;23;20158;-78
2023/04/17 22:32:25;;;;;;;8.13;7.33;;;6.80;99.90;;;;;;6206408;23;20224;-78
2023/04/17 22:34:51;;;;;;;8.27;7.03;;;6.80;99.90;;;;;;6207905;23;20150;-80
2023/04/17 22:37:17;;;;;;;8.37;7.57;;;6.90;99.90;;;;;;6206383;23;20169;-79
2023/04/17 22:39:42;;;;;;;8.40;7.53;;;6.90;99.90;;;;;;6208517;23;20664;-78
2023/04/17 22:42:08;;;;;;;7.93;7.13;;;6.90;99.90;;;;;;6208666;23;20198;-79
2023/04/17 22:44:34;;;;;;;8.10;7.30;;;6.90;99.90;;;;;;6206751;23;20697;-80
2023/04/17 22:47:00;;;;;;;8.67;7.27;;;7.00;99.90;;;;;;6206600;23;20182;-79
2023/04/17 22:49:25;;;;;;;8.47;6.53;;;7.00;99.90;;;;;;6208193;23;20146;-79
2023/04/17 22:51:51;;;;;;;7.63;6.90;;;7.00;99.90;;;;;;6206228;23;20184;-79
2023/04/17 22:54:17;;;;;;;7.70;7.00;;;7.10;99.90;;;;;;6208395;23;20498;-79
2023/04/17 22:56:43;;;;;;;8.03;7.23;;;7.10;99.90;;;;;;6206671;23;20162;-78
2023/04/17 22:59:10;;;;;;;8.43;7.23;;;7.10;99.60;;;;;;6205936;23;20172;-79
2023/04/17 23:01:35;;;;;;;8.30;7.40;;;7.10;77.40;;;;;;6208206;23;20174;-78
2023/04/17 23:04:01;;;;;;;7.83;7.03;;;7.10;75.80;;;;;;6206491;23;20166;-80
2023/04/17 23:06:26;;;;;;;9.10;7.77;;;7.10;72.30;;;;;;6208192;23;20233;-79
2023/04/17 23:08:52;;;;;;;8.83;7.93;;;7.10;59.30;;;;;;6205434;23;20154;-78
2023/04/17 23:11:18;;;;;;;8.33;7.33;;;7.10;63.40;;;;;;6205777;23;20178;-78
2023/04/17 23:13:44;;;;;;;8.13;7.33;;;7.10;65.50;;;;;;6207112;23;20178;-79
2023/04/17 23:16:09;;;;;;;9.33;8.27;;;7.10;77.10;;;;;;6207232;23;20157;-78
2023/04/17 23:18:36;;;;;;;9.60;8.60;;;7.10;66.10;;;;;;6206750;23;20665;-78
2023/04/17 23:21:02;;;;;;;11.07;8.70;;;7.00;69.20;;;;;;6207149;23;20239;-78
2023/04/17 23:23:27;;;;;;;9.37;8.37;;;7.40;80.00;;;;;;6207099;23;20240;-78
2023/04/17 23:25:53;;;;;;;9.33;8.33;;;7.00;93.50;;;;;;6205291;23;22109;-79
2023/04/17 23:28:19;;;;;;;10.13;8.53;;;7.10;93.10;;;;;;6205058;23;20725;-78
2023/04/17 23:30:44;;;;;;;10.20;9.00;;;7.00;94.50;;;;;;6205048;23;20221;-78
2023/04/17 23:33:10;;;;;;;13.73;10.80;;;7.00;99.90;;;;;;6205342;23;20617;-78
2023/04/17 23:35:36;;;;;;;10.37;9.30;;;7.00;99.90;;;;;;6205023;23;20602;-78
2023/04/17 23:38:01;;;;;;;11.70;10.27;;;7.00;99.90;;;;;;6205261;23;20154;-78
2023/04/17 23:40:27;;;;;;;13.33;10.83;;;6.90;99.90;;;;;;6204615;23;20182;-79
2023/04/17 23:42:53;;;;;;;13.37;11.83;;;6.90;99.90;;;;;;6206941;23;20154;-79
2023/04/17 23:45:19;;;;;;;13.57;11.17;;;6.80;99.90;;;;;;6205064;23;20215;-79
2023/04/17 23:47:45;;;;;;;12.53;11.07;;;6.80;99.90;;;;;;6205891;23;20632;-79
2023/04/17 23:50:10;;;;;;;14.27;11.40;;;6.80;99.90;;;;;;6207870;23;20602;-79
2023/04/17 23:52:36;;;;;;;13.43;11.50;;;6.80;99.90;;;;;;6208262;23;20502;-79
2023/04/17 23:55:02;;;;;;;14.13;12.23;;;6.80;99.90;;;;;;6208347;23;20165;-79
2023/04/17 23:57:28;;;;;;;14.10;11.47;;;6.70;99.90;;;;;;6208093;23;20204;-79
2023/04/17 23:59:54;;;;;;;12.73;11.33;;;6.70;99.90;;;;;;6209820;23;20151;-78
